Time;durP1;ratioP1;P1;durP2;ratioP2;P2;SDS_P1;SDS_P2;PMS_P1;PMS_P2;Temp;Humidity;BMP_temperature;BMP_pressure;BME280_temperature;BME280_humidity;BME280_pressure;Samples;Min_cycle;Max_cycle;Signal;HPM_P1;HPM_P2
2022/07/27 00:02:23;;;;;;;26.70;6.50;;;;;;;;;;5010189;28;20049;-63
2022/07/27 00:04:51;;;;;;;24.85;6.82;;;;;;;;;;5000684;28;20410;-61
2022/07/27 00:07:18;;;;;;;37.58;6.82;;;;;;;;;;4988556;23;20052;-64
2022/07/27 00:09:45;;;;;;;48.22;8.70;;;;;;;;;;4962301;28;20041;-64
2022/07/27 00:12:12;;;;;;;24.98;6.35;;;;;;;;;;4953093;28;20035;-68
2022/07/27 00:14:39;;;;;;;29.88;6.15;;;;;;;;;;4961554;28;20066;-66
2022/07/27 00:17:06;;;;;;;28.00;6.47;;;;;;;;;;4961725;28;20027;-64
2022/07/27 00:19:33;;;;;;;33.70;7.90;;;;;;;;;;4967495;28;20026;-65
2022/07/27 00:22:00;;;;;;;29.02;7.97;;;;;;;;;;4963286;28;20031;-64
2022/07/27 00:24:27;;;;;;;32.88;7.50;;;;;;;;;;4963796;28;20061;-65
2022/07/27 00:26:54;;;;;;;26.00;7.45;;;;;;;;;;4960211;28;20109;-66
2022/07/27 00:29:21;;;;;;;30.63;7.63;;;;;;;;;;4963317;28;20026;-64
2022/07/27 00:31:48;;;;;;;26.92;7.50;;;;;;;;;;4966348;28;20039;-64
2022/07/27 00:34:15;;;;;;;27.85;7.32;;;;;;;;;;4963391;28;20035;-65
2022/07/27 00:36:42;;;;;;;26.25;6.35;;;;;;;;;;4955429;28;20031;-65
2022/07/27 00:39:09;;;;;;;33.40;7.05;;;;;;;;;;4962091;28;20030;-64
2022/07/27 00:41:36;;;;;;;27.48;6.82;;;;;;;;;;4962861;28;20058;-64
2022/07/27 00:44:05;;;;;;;29.77;6.20;;;;;;;;;;4968540;28;20015;-64
2022/07/27 00:46:33;;;;;;;23.25;6.40;;;;;;;;;;4951752;28;20023;-64
2022/07/27 00:49:00;;;;;;;27.02;6.47;;;;;;;;;;4971380;28;20027;-64
2022/07/27 00:51:27;;;;;;;28.02;6.38;;;;;;;;;;4966081;28;20030;-65
2022/07/27 00:53:54;;;;;;;23.20;6.25;;;;;;;;;;4961902;28;20031;-66
2022/07/27 00:56:22;;;;;;;21.55;5.47;;;;;;;;;;4975129;28;20031;-64
2022/07/27 00:58:50;;;;;;;22.27;5.15;;;;;;;;;;4955967;28;20130;-64
2022/07/27 01:01:20;;;;;;;20.60;5.63;;;;;;;;;;4964304;28;20477;-64
2022/07/27 01:03:47;;;;;;;18.55;5.03;;;;;;;;;;4967559;28;20799;-67
2022/07/27 01:06:15;;;;;;;20.63;5.03;;;;;;;;;;4972553;28;20047;-64
2022/07/27 01:08:41;;;;;;;21.88;4.90;;;;;;;;;;4968911;28;20125;-64
2022/07/27 01:11:09;;;;;;;17.60;4.40;;;;;;;;;;4967413;28;20069;-64
2022/07/27 01:13:36;;;;;;;13.52;4.45;;;;;;;;;;4963694;28;20053;-64
2022/07/27 01:16:07;;;;;;;18.02;4.68;;;;;;;;;;4956933;28;20050;-64
2022/07/27 01:18:38;;;;;;;18.05;4.82;;;;;;;;;;4965846;28;20034;-64
2022/07/27 01:21:08;;;;;;;14.13;3.80;;;;;;;;;;4968743;28;20022;-64
2022/07/27 01:23:35;;;;;;;18.27;4.88;;;;;;;;;;4969129;28;20031;-64
2022/07/27 01:26:04;;;;;;;18.40;4.88;;;;;;;;;;4967899;28;20125;-64
2022/07/27 01:28:31;;;;;;;15.63;4.10;;;;;;;;;;4970844;28;20049;-64
2022/07/27 01:30:59;;;;;;;18.98;3.72;;;;;;;;;;4960787;28;20027;-64
2022/07/27 01:33:26;;;;;;;16.25;3.90;;;;;;;;;;4968816;28;20384;-64
2022/07/27 01:35:54;;;;;;;14.52;3.80;;;;;;;;;;4971398;28;20121;-64
2022/07/27 01:38:22;;;;;;;17.55;4.13;;;;;;;;;;4963250;28;20085;-64
2022/07/27 01:40:53;;;;;;;11.57;3.45;;;;;;;;;;4963507;28;20033;-65
2022/07/27 01:43:20;;;;;;;12.70;4.55;;;;;;;;;;4969880;28;20032;-63
2022/07/27 01:45:47;;;;;;;12.07;3.53;;;;;;;;;;4963619;28;20027;-65
2022/07/27 01:48:15;;;;;;;10.52;3.25;;;;;;;;;;4967792;28;20046;-63
2022/07/27 01:50:42;;;;;;;14.63;3.33;;;;;;;;;;4962335;28;20118;-63
2022/07/27 01:53:09;;;;;;;15.93;3.45;;;;;;;;;;4966390;28;20457;-64
2022/07/27 01:55:36;;;;;;;13.93;3.08;;;;;;;;;;4967757;28;20039;-65
2022/07/27 01:58:06;;;;;;;11.40;3.88;;;;;;;;;;4980409;28;20776;-66
2022/07/27 02:00:33;;;;;;;15.23;3.60;;;;;;;;;;4969492;28;20042;-66
2022/07/27 02:03:00;;;;;;;13.73;3.38;;;;;;;;;;4972392;28;20492;-69
2022/07/27 02:05:27;;;;;;;11.98;3.03;;;;;;;;;;4973137;28;20038;-67
2022/07/27 02:07:54;;;;;;;11.50;2.63;;;;;;;;;;4991693;28;20078;-67
2022/07/27 02:10:21;;;;;;;19.05;4.03;;;;;;;;;;4992675;28;20056;-67
2022/07/27 02:12:48;;;;;;;18.58;3.35;;;;;;;;;;4975726;28;20391;-67
2022/07/27 02:15:18;;;;;;;16.13;3.50;;;;;;;;;;4992578;28;20112;-66
2022/07/27 02:17:45;;;;;;;13.10;3.17;;;;;;;;;;4993435;28;20038;-67
2022/07/27 02:20:13;;;;;;;24.02;3.08;;;;;;;;;;4992822;28;20034;-67
2022/07/27 02:22:40;;;;;;;15.23;2.60;;;;;;;;;;4990835;28;20353;-68
2022/07/27 02:25:08;;;;;;;13.05;2.95;;;;;;;;;;4993638;28;20026;-68
2022/07/27 02:27:35;;;;;;;13.43;2.63;;;;;;;;;;4975745;28;20043;-68
2022/07/27 02:30:03;;;;;;;14.70;3.15;;;;;;;;;;4991242;28;20029;-65
2022/07/27 02:32:30;;;;;;;13.02;2.85;;;;;;;;;;4985614;28;20038;-67
2022/07/27 02:34:57;;;;;;;15.60;3.85;;;;;;;;;;4994504;28;20114;-68
2022/07/27 02:37:24;;;;;;;10.88;2.85;;;;;;;;;;4993533;28;20040;-68
2022/07/27 02:39:55;;;;;;;16.05;3.20;;;;;;;;;;4993810;28;20042;-66
2022/07/27 02:42:21;;;;;;;16.77;2.67;;;;;;;;;;4994405;28;20054;-66
2022/07/27 02:44:48;;;;;;;15.02;3.00;;;;;;;;;;4994245;28;20057;-66
2022/07/27 02:47:16;;;;;;;16.67;2.30;;;;;;;;;;4991728;28;20027;-66
2022/07/27 02:49:42;;;;;;;12.07;2.50;;;;;;;;;;4994014;28;20038;-68
2022/07/27 02:52:09;;;;;;;9.13;2.28;;;;;;;;;;4993693;28;20026;-66
2022/07/27 02:54:36;;;;;;;13.93;2.90;;;;;;;;;;4981528;28;20121;-66
2022/07/27 02:57:03;;;;;;;15.15;1.90;;;;;;;;;;4981291;28;20174;-66
2022/07/27 02:59:30;;;;;;;7.53;2.17;;;;;;;;;;4984855;28;20540;-66
2022/07/27 03:01:57;;;;;;;10.70;2.10;;;;;;;;;;4982936;28;20030;-66
2022/07/27 03:04:25;;;;;;;11.10;2.70;;;;;;;;;;4982884;28;20562;-66
2022/07/27 03:06:52;;;;;;;7.68;2.17;;;;;;;;;;4984057;28;20046;-66
2022/07/27 03:09:19;;;;;;;10.13;2.38;;;;;;;;;;4983392;28;20033;-68
2022/07/27 03:11:46;;;;;;;12.18;2.42;;;;;;;;;;4982094;28;20039;-66
2022/07/27 03:14:13;;;;;;;10.57;2.35;;;;;;;;;;4984368;28;20039;-66
2022/07/27 03:16:40;;;;;;;11.30;2.30;;;;;;;;;;4982734;28;20073;-67
2022/07/27 03:19:07;;;;;;;9.60;1.80;;;;;;;;;;4981798;28;20129;-67
2022/07/27 03:21:34;;;;;;;8.07;1.98;;;;;;;;;;4983583;28;20022;-68
2022/07/27 03:24:01;;;;;;;6.88;1.90;;;;;;;;;;4983354;28;20022;-66
2022/07/27 03:26:29;;;;;;;7.72;1.70;;;;;;;;;;4982079;28;20026;-67
2022/07/27 03:28:57;;;;;;;8.85;1.67;;;;;;;;;;4983290;28;20480;-66
2022/07/27 03:31:24;;;;;;;6.72;2.28;;;;;;;;;;4983461;28;20031;-68
2022/07/27 03:33:51;;;;;;;4.90;1.50;;;;;;;;;;4981725;28;20023;-67
2022/07/27 03:36:18;;;;;;;5.72;1.70;;;;;;;;;;4982740;28;20396;-67
2022/07/27 03:38:45;;;;;;;6.88;1.85;;;;;;;;;;4983677;28;20050;-66
2022/07/27 03:41:12;;;;;;;4.72;1.92;;;;;;;;;;4982009;28;20035;-67
2022/07/27 03:43:38;;;;;;;6.38;1.98;;;;;;;;;;4982412;28;20496;-67
2022/07/27 03:46:05;;;;;;;5.20;1.80;;;;;;;;;;4983413;28;20026;-67
2022/07/27 03:48:32;;;;;;;5.35;1.65;;;;;;;;;;4978357;28;20030;-67
2022/07/27 03:50:59;;;;;;;5.55;2.28;;;;;;;;;;4976952;28;20108;-65
2022/07/27 03:53:26;;;;;;;5.72;1.33;;;;;;;;;;4990928;28;20030;-66
2022/07/27 03:55:54;;;;;;;4.95;1.50;;;;;;;;;;4993101;28;20555;-66
2022/07/27 03:58:22;;;;;;;4.68;1.73;;;;;;;;;;4992176;28;20030;-66
2022/07/27 04:00:49;;;;;;;8.00;1.35;;;;;;;;;;4992863;28;20035;-65
2022/07/27 04:03:17;;;;;;;5.80;1.50;;;;;;;;;;4993102;28;20045;-66
2022/07/27 04:05:44;;;;;;;6.63;1.63;;;;;;;;;;4992567;28;20030;-66
2022/07/27 04:08:11;;;;;;;4.35;1.30;;;;;;;;;;4993140;28;20446;-66
2022/07/27 04:10:38;;;;;;;5.03;1.20;;;;;;;;;;4992389;28;20038;-66
2022/07/27 04:13:05;;;;;;;5.45;1.55;;;;;;;;;;4993093;28;20038;-66
2022/07/27 04:15:32;;;;;;;2.60;1.10;;;;;;;;;;4992646;28;20053;-66
2022/07/27 04:17:59;;;;;;;4.63;1.30;;;;;;;;;;4992131;28;20030;-66
2022/07/27 04:20:26;;;;;;;4.00;1.08;;;;;;;;;;4992744;28;20034;-66
2022/07/27 04:22:53;;;;;;;4.10;1.73;;;;;;;;;;4992008;28;20034;-66
2022/07/27 04:25:20;;;;;;;3.85;1.42;;;;;;;;;;4992816;28;20145;-66
2022/07/27 04:27:47;;;;;;;3.20;1.15;;;;;;;;;;4992144;28;20077;-66
2022/07/27 04:30:15;;;;;;;3.92;1.05;;;;;;;;;;4992071;28;20057;-66
2022/07/27 04:32:42;;;;;;;3.95;1.00;;;;;;;;;;4992715;28;20040;-66
2022/07/27 04:35:09;;;;;;;2.97;0.93;;;;;;;;;;4991998;28;20419;-66
2022/07/27 04:37:36;;;;;;;5.43;1.20;;;;;;;;;;4992329;28;20062;-65
2022/07/27 04:40:03;;;;;;;2.85;0.95;;;;;;;;;;4992284;28;20037;-66
2022/07/27 04:42:30;;;;;;;2.85;0.93;;;;;;;;;;4992395;28;20022;-66
2022/07/27 04:44:58;;;;;;;4.40;1.42;;;;;;;;;;4992048;28;20654;-65
2022/07/27 04:47:25;;;;;;;2.65;0.80;;;;;;;;;;4992437;28;20045;-66
2022/07/27 04:49:52;;;;;;;3.10;1.15;;;;;;;;;;4991850;28;20133;-66
2022/07/27 04:52:19;;;;;;;5.97;1.00;;;;;;;;;;4992190;28;20365;-66
2022/07/27 04:54:46;;;;;;;3.10;1.05;;;;;;;;;;4992033;28;20543;-66
2022/07/27 04:57:13;;;;;;;3.22;0.90;;;;;;;;;;4991438;28;20065;-65
2022/07/27 04:59:40;;;;;;;4.53;1.25;;;;;;;;;;4992547;28;20031;-65
2022/07/27 05:02:07;;;;;;;2.33;1.00;;;;;;;;;;4991820;28;20027;-66
2022/07/27 05:04:34;;;;;;;9.13;1.05;;;;;;;;;;4992106;28;20072;-65
2022/07/27 05:07:01;;;;;;;7.50;1.05;;;;;;;;;;4991790;28;20050;-65
2022/07/27 05:09:28;;;;;;;2.80;1.20;;;;;;;;;;4992495;28;20431;-65
2022/07/27 05:11:55;;;;;;;2.58;0.95;;;;;;;;;;4992214;28;20034;-65
2022/07/27 05:14:22;;;;;;;2.08;1.00;;;;;;;;;;4992181;28;20141;-66
2022/07/27 05:16:50;;;;;;;3.30;0.90;;;;;;;;;;4991709;28;20366;-66
2022/07/27 05:19:17;;;;;;;1.55;0.50;;;;;;;;;;4991490;28;20054;-66
2022/07/27 05:21:44;;;;;;;1.63;0.70;;;;;;;;;;4991778;28;20038;-65
2022/07/27 05:24:11;;;;;;;3.67;0.90;;;;;;;;;;4991289;28;20444;-65
2022/07/27 05:26:38;;;;;;;3.20;0.70;;;;;;;;;;4992228;28;20022;-66
2022/07/27 05:29:05;;;;;;;1.58;1.00;;;;;;;;;;4991477;28;20041;-65
2022/07/27 05:31:32;;;;;;;2.13;0.68;;;;;;;;;;4992316;28;20093;-65
2022/07/27 05:33:59;;;;;;;2.40;0.77;;;;;;;;;;4991884;28;20041;-66
2022/07/27 05:36:26;;;;;;;1.77;0.60;;;;;;;;;;4991616;28;20065;-66
2022/07/27 05:38:54;;;;;;;2.40;0.93;;;;;;;;;;4991851;28;20042;-65
2022/07/27 05:41:24;;;;;;;2.50;0.75;;;;;;;;;;4995536;28;20030;-65
2022/07/27 05:43:53;;;;;;;2.60;1.10;;;;;;;;;;4995435;28;20030;-65
2022/07/27 05:46:20;;;;;;;1.08;0.50;;;;;;;;;;4995529;28;20042;-66
2022/07/27 05:48:47;;;;;;;1.85;0.70;;;;;;;;;;4995556;28;20092;-65
2022/07/27 05:51:14;;;;;;;2.28;0.90;;;;;;;;;;4993818;28;20034;-65
2022/07/27 05:53:41;;;;;;;3.47;0.85;;;;;;;;;;4995533;28;20045;-66
2022/07/27 05:56:08;;;;;;;2.47;0.50;;;;;;;;;;4994816;28;20088;-66
2022/07/27 05:58:35;;;;;;;1.65;0.70;;;;;;;;;;4995709;28;20038;-66
2022/07/27 06:01:02;;;;;;;2.08;0.70;;;;;;;;;;4994869;28;20443;-66
2022/07/27 06:03:30;;;;;;;1.77;0.73;;;;;;;;;;4995478;28;20023;-66
2022/07/27 06:08:42;;;;;;;1.83;0.60;;;;;;;;;;4995456;28;20041;-65
2022/07/27 06:11:09;;;;;;;1.08;0.45;;;;;;;;;;4994511;28;20036;-65
2022/07/27 06:13:37;;;;;;;2.70;0.70;;;;;;;;;;4993201;28;20113;-65
2022/07/27 06:16:04;;;;;;;2.05;0.73;;;;;;;;;;4994869;28;20034;-66
2022/07/27 06:18:31;;;;;;;1.05;0.50;;;;;;;;;;4994472;28;20026;-66
2022/07/27 06:21:01;;;;;;;2.08;0.80;;;;;;;;;;4995198;28;20052;-65
2022/07/27 06:23:28;;;;;;;2.00;0.80;;;;;;;;;;4994401;28;20387;-65
2022/07/27 06:25:56;;;;;;;1.48;0.68;;;;;;;;;;4994788;28;20034;-66
2022/07/27 06:28:23;;;;;;;2.35;1.00;;;;;;;;;;4994954;28;20445;-66
2022/07/27 06:30:52;;;;;;;1.67;0.95;;;;;;;;;;4992877;28;20480;-65
2022/07/27 06:33:29;;;;;;;1.85;0.40;;;;;;;;;;4994676;28;20030;-65
2022/07/27 06:35:57;;;;;;;0.77;0.50;;;;;;;;;;4994148;28;20040;-66
2022/07/27 06:38:24;;;;;;;1.73;0.90;;;;;;;;;;4994989;28;20493;-65
2022/07/27 06:40:54;;;;;;;0.98;0.73;;;;;;;;;;4994097;28;20026;-65
2022/07/27 06:43:22;;;;;;;1.02;0.85;;;;;;;;;;4994368;28;20035;-65
2022/07/27 06:45:49;;;;;;;0.90;0.80;;;;;;;;;;4994240;28;20101;-65
2022/07/27 06:48:17;;;;;;;1.48;0.63;;;;;;;;;;4993797;28;20480;-65
2022/07/27 06:50:44;;;;;;;1.40;0.60;;;;;;;;;;5156253;22;20017;-65
2022/07/27 06:53:11;;;;;;;2.03;0.47;;;;;;;;;;5053006;28;20032;-66
2022/07/27 06:55:38;;;;;;;1.00;0.50;;;;;;;;;;5053500;28;20497;-66
2022/07/27 06:58:05;;;;;;;2.38;0.50;;;;;;;;;;5054088;28;20429;-66
2022/07/27 07:00:33;;;;;;;0.75;0.70;;;;;;;;;;5053550;28;20075;-66
2022/07/27 07:03:04;;;;;;;1.05;0.40;;;;;;;;;;5053848;28;20433;-66
2022/07/27 07:05:33;;;;;;;0.82;0.32;;;;;;;;;;5053563;28;20032;-66
2022/07/27 07:08:00;;;;;;;1.02;0.45;;;;;;;;;;5053568;28;20048;-66
2022/07/27 07:10:27;;;;;;;1.70;0.75;;;;;;;;;;5053620;28;20049;-66
2022/07/27 07:12:55;;;;;;;1.40;0.60;;;;;;;;;;5052880;28;20032;-68
2022/07/27 07:15:23;;;;;;;1.80;0.40;;;;;;;;;;5053052;28;20029;-68
2022/07/27 07:17:49;;;;;;;1.23;0.40;;;;;;;;;;5053505;28;20025;-68
2022/07/27 07:20:17;;;;;;;0.90;0.57;;;;;;;;;;5053341;28;20052;-68
2022/07/27 07:22:44;;;;;;;0.85;0.38;;;;;;;;;;5052938;28;20041;-68
2022/07/27 07:25:11;;;;;;;0.77;0.40;;;;;;;;;;5053176;28;20025;-68
2022/07/27 07:27:37;;;;;;;1.23;0.52;;;;;;;;;;5053116;28;20494;-68
2022/07/27 07:30:05;;;;;;;2.15;0.63;;;;;;;;;;5053365;28;20028;-68
2022/07/27 07:32:32;;;;;;;0.68;0.50;;;;;;;;;;5052988;28;20044;-68
2022/07/27 07:34:59;;;;;;;1.00;0.60;;;;;;;;;;5052983;28;20037;-68
2022/07/27 07:37:26;;;;;;;1.02;0.57;;;;;;;;;;5053238;28;20115;-68
2022/07/27 07:39:53;;;;;;;1.10;0.40;;;;;;;;;;5052679;28;20424;-68
2022/07/27 07:42:20;;;;;;;1.10;0.40;;;;;;;;;;5052196;28;20677;-68
2022/07/27 07:44:47;;;;;;;0.82;0.50;;;;;;;;;;5053128;28;20075;-68
2022/07/27 07:47:14;;;;;;;1.77;0.35;;;;;;;;;;5052530;28;20387;-67
2022/07/27 07:49:41;;;;;;;1.30;0.50;;;;;;;;;;5052430;28;20028;-68
2022/07/27 07:52:08;;;;;;;1.48;0.40;;;;;;;;;;5052791;28;20049;-68
2022/07/27 07:54:35;;;;;;;0.40;0.22;;;;;;;;;;5052752;28;20040;-67
2022/07/27 07:57:02;;;;;;;1.10;0.40;;;;;;;;;;5052402;28;20028;-68
2022/07/27 07:59:29;;;;;;;0.47;0.30;;;;;;;;;;5052566;28;20363;-68
2022/07/27 08:01:56;;;;;;;0.43;0.30;;;;;;;;;;5052620;28;20024;-68
2022/07/27 08:04:23;;;;;;;0.60;0.30;;;;;;;;;;5051910;28;20492;-68
2022/07/27 08:06:51;;;;;;;2.60;0.55;;;;;;;;;;5052707;28;20078;-68
2022/07/27 08:09:20;;;;;;;0.77;0.22;;;;;;;;;;5052575;28;20087;-68
2022/07/27 08:11:47;;;;;;;1.08;0.30;;;;;;;;;;5052194;28;20032;-68
2022/07/27 08:14:14;;;;;;;1.55;0.50;;;;;;;;;;5052231;28;20016;-68
2022/07/27 08:16:41;;;;;;;0.85;0.63;;;;;;;;;;5051992;28;20486;-68
2022/07/27 08:19:08;;;;;;;0.82;0.30;;;;;;;;;;5052358;28;20029;-67
2022/07/27 08:21:35;;;;;;;1.42;0.30;;;;;;;;;;5051988;28;20025;-68
2022/07/27 08:24:02;;;;;;;1.15;0.50;;;;;;;;;;5052294;28;20028;-68
2022/07/27 08:26:29;;;;;;;1.52;0.40;;;;;;;;;;5052253;28;20049;-68
2022/07/27 08:28:56;;;;;;;0.82;0.40;;;;;;;;;;5051900;28;20028;-68
2022/07/27 08:31:23;;;;;;;0.80;0.38;;;;;;;;;;5052057;28;20029;-68
2022/07/27 08:33:50;;;;;;;1.52;0.20;;;;;;;;;;5051991;28;20052;-67
2022/07/27 08:36:17;;;;;;;0.38;0.25;;;;;;;;;;5051659;28;20036;-68
2022/07/27 08:38:44;;;;;;;2.55;0.60;;;;;;;;;;5051888;28;20028;-67
2022/07/27 08:41:12;;;;;;;1.10;0.28;;;;;;;;;;5051637;28;20029;-68
2022/07/27 08:43:42;;;;;;;0.50;0.30;;;;;;;;;;5052051;28;20450;-68
2022/07/27 08:46:10;;;;;;;1.02;0.60;;;;;;;;;;5051884;28;20029;-68
2022/07/27 08:48:39;;;;;;;0.40;0.30;;;;;;;;;;5051952;28;20021;-68
2022/07/27 08:51:06;;;;;;;1.88;0.70;;;;;;;;;;5051460;28;20107;-68
2022/07/27 08:53:35;;;;;;;0.57;0.32;;;;;;;;;;5052177;28;20021;-68
2022/07/27 08:56:02;;;;;;;1.15;0.30;;;;;;;;;;5051402;28;20494;-67
2022/07/27 08:58:29;;;;;;;2.55;0.60;;;;;;;;;;5051671;28;20079;-68
2022/07/27 09:00:56;;;;;;;0.82;0.30;;;;;;;;;;5051408;28;20017;-68
2022/07/27 09:03:23;;;;;;;0.60;0.35;;;;;;;;;;5051532;28;20028;-68
2022/07/27 09:05:55;;;;;;;0.10;0.10;;;;;;;;;;5051666;28;20052;-68
2022/07/27 09:08:23;;;;;;;0.40;0.20;;;;;;;;;;5051853;28;20024;-68
2022/07/27 09:10:51;;;;;;;0.85;0.20;;;;;;;;;;5051579;28;20028;-68
2022/07/27 09:13:29;;;;;;;3.45;0.30;;;;;;;;;;5051437;28;20022;-68
2022/07/27 09:16:00;;;;;;;0.85;0.65;;;;;;;;;;5054486;28;20035;-67
2022/07/27 09:18:28;;;;;;;2.00;0.30;;;;;;;;;;5055726;28;20060;-68
2022/07/27 09:21:10;;;;;;;2.28;0.25;;;;;;;;;;5055548;28;20501;-68
2022/07/27 09:23:39;;;;;;;0.77;0.28;;;;;;;;;;5055721;28;20029;-68
2022/07/27 09:26:12;;;;;;;0.52;0.30;;;;;;;;;;5053839;28;20029;-68
2022/07/27 09:28:39;;;;;;;0.98;0.60;;;;;;;;;;5055039;28;20067;-68
2022/07/27 09:31:07;;;;;;;1.10;0.40;;;;;;;;;;5055648;28;20048;-68
2022/07/27 09:33:41;;;;;;;1.80;0.63;;;;;;;;;;5055278;28;20522;-68
2022/07/27 09:36:08;;;;;;;1.40;0.65;;;;;;;;;;5055192;28;20033;-67
2022/07/27 09:38:35;;;;;;;0.40;0.40;;;;;;;;;;5052967;28;20474;-69
2022/07/27 09:41:03;;;;;;;0.50;0.50;;;;;;;;;;5054593;28;20025;-68
2022/07/27 09:43:32;;;;;;;2.92;0.73;;;;;;;;;;5054125;28;20021;-68
2022/07/27 09:46:08;;;;;;;1.95;0.65;;;;;;;;;;5052084;28;20029;-69
2022/07/27 09:48:35;;;;;;;4.30;0.50;;;;;;;;;;5054699;28;20025;-65
2022/07/27 09:51:03;;;;;;;5.03;0.65;;;;;;;;;;5048563;28;20110;-69
2022/07/27 09:53:34;;;;;;;7.22;0.77;;;;;;;;;;5053006;28;20029;-68
2022/07/27 09:56:01;;;;;;;5.07;0.60;;;;;;;;;;5052255;28;20041;-69
2022/07/27 09:58:40;;;;;;;3.95;0.70;;;;;;;;;;5052587;28;20426;-72
2022/07/27 10:01:11;;;;;;;2.70;0.50;;;;;;;;;;5053958;28;20059;-70
2022/07/27 10:03:39;;;;;;;4.68;0.60;;;;;;;;;;5047068;28;20056;-76
2022/07/27 10:06:06;;;;;;;0.57;0.30;;;;;;;;;;5033896;28;20052;-74
2022/07/27 10:08:33;;;;;;;1.40;0.57;;;;;;;;;;5033174;28;20070;-69
2022/07/27 10:11:00;;;;;;;5.03;0.60;;;;;;;;;;5033261;28;20040;-67
2022/07/27 10:13:27;;;;;;;3.92;0.70;;;;;;;;;;5033412;28;20057;-67
2022/07/27 10:15:55;;;;;;;3.10;0.43;;;;;;;;;;5034199;28;20072;-68
2022/07/27 10:18:40;;;;;;;1.70;0.32;;;;;;;;;;5033685;28;20044;-68
2022/07/27 10:21:07;;;;;;;3.38;0.52;;;;;;;;;;5033344;28;20056;-67
2022/07/27 10:23:36;;;;;;;1.73;0.40;;;;;;;;;;5033099;28;20055;-65
2022/07/27 10:26:27;;;;;;;2.97;0.50;;;;;;;;;;5032955;28;20029;-66
2022/07/27 10:28:56;;;;;;;0.88;0.30;;;;;;;;;;5033716;28;20099;-66
2022/07/27 10:31:27;;;;;;;1.55;0.40;;;;;;;;;;5032581;28;20075;-67
2022/07/27 10:33:55;;;;;;;4.25;0.60;;;;;;;;;;5033113;28;20032;-68
2022/07/27 10:36:31;;;;;;;1.70;0.40;;;;;;;;;;5032957;28;20037;-69
2022/07/27 10:38:59;;;;;;;3.35;0.68;;;;;;;;;;5033403;28;20056;-69
2022/07/27 10:41:44;;;;;;;2.25;0.45;;;;;;;;;;5032550;28;20099;-67
2022/07/27 10:44:17;;;;;;;4.07;0.77;;;;;;;;;;5035065;28;20033;-64
2022/07/27 10:47:00;;;;;;;2.97;0.60;;;;;;;;;;5033067;28;20029;-64
2022/07/27 10:49:33;;;;;;;1.13;0.35;;;;;;;;;;5033146;28;20033;-64
2022/07/27 10:51:59;;;;;;;;;;;;;;;;;;5032266;28;20469;-64
2022/07/27 10:54:31;;;;;;;1.38;0.50;;;;;;;;;;5032339;28;20390;-68
2022/07/27 10:57:01;;;;;;;2.28;0.60;;;;;;;;;;5032867;28;20079;-66
2022/07/27 10:59:48;;;;;;;0.63;0.30;;;;;;;;;;5033208;28;20088;-67
2022/07/27 11:02:18;;;;;;;1.58;0.50;;;;;;;;;;5032623;28;20025;-64
2022/07/27 11:04:49;;;;;;;2.10;0.32;;;;;;;;;;5032014;28;20760;-63
2022/07/27 11:07:18;;;;;;;1.35;0.40;;;;;;;;;;5031889;28;20382;-68
2022/07/27 11:09:45;;;;;;;2.00;0.45;;;;;;;;;;5033228;28;20685;-66
2022/07/27 11:12:13;;;;;;;1.05;0.40;;;;;;;;;;5032839;28;20091;-64
2022/07/27 11:14:53;;;;;;;1.83;0.30;;;;;;;;;;5032180;28;20047;-68
2022/07/27 11:17:21;;;;;;;8.45;0.50;;;;;;;;;;5046523;28;20025;-65
2022/07/27 11:19:52;;;;;;;0.75;0.35;;;;;;;;;;5052034;28;20033;-64
2022/07/27 11:22:29;;;;;;;3.00;0.70;;;;;;;;;;5052623;28;20552;-64
2022/07/27 11:24:56;;;;;;;0.40;0.30;;;;;;;;;;5052557;28;20151;-65
2022/07/27 11:27:22;;;;;;;4.32;0.30;;;;;;;;;;5052134;28;20021;-65
2022/07/27 11:29:50;;;;;;;3.30;0.40;;;;;;;;;;5052241;28;20029;-67
2022/07/27 11:32:20;;;;;;;0.60;0.30;;;;;;;;;;5051515;28;20448;-63
2022/07/27 11:34:48;;;;;;;0.90;0.40;;;;;;;;;;5052248;28;20086;-66
2022/07/27 11:37:22;;;;;;;0.95;0.35;;;;;;;;;;5051756;28;20029;-65
2022/07/27 11:39:57;;;;;;;0.60;0.20;;;;;;;;;;5041336;28;20095;-63
2022/07/27 11:42:36;;;;;;;1.90;0.73;;;;;;;;;;5040792;28;20033;-65
2022/07/27 11:45:03;;;;;;;2.63;0.40;;;;;;;;;;5032512;28;20569;-68
2022/07/27 11:47:30;;;;;;;1.05;0.30;;;;;;;;;;5032158;28;20029;-65
2022/07/27 11:50:06;;;;;;;2.88;0.30;;;;;;;;;;5030188;28;20025;-67
2022/07/27 11:52:33;;;;;;;1.20;0.30;;;;;;;;;;5032482;28;20052;-68
2022/07/27 11:55:01;;;;;;;1.20;0.20;;;;;;;;;;5031723;28;20037;-68
2022/07/27 11:57:32;;;;;;;0.60;0.30;;;;;;;;;;5031754;28;20021;-66
2022/07/27 11:59:59;;;;;;;0.68;0.35;;;;;;;;;;5030117;28;20533;-66
2022/07/27 12:02:26;;;;;;;1.67;0.30;;;;;;;;;;5032432;28;20029;-67
2022/07/27 12:04:53;;;;;;;1.67;0.30;;;;;;;;;;5031133;28;20691;-66
2022/07/27 12:07:22;;;;;;;1.10;0.40;;;;;;;;;;5031418;28;20029;-67
2022/07/27 12:09:51;;;;;;;0.47;0.28;;;;;;;;;;5030955;28;20499;-68
2022/07/27 12:12:19;;;;;;;0.93;0.30;;;;;;;;;;5031448;28;20368;-65
2022/07/27 12:14:56;;;;;;;3.30;0.60;;;;;;;;;;5031991;28;20053;-65
2022/07/27 12:17:22;;;;;;;1.42;0.38;;;;;;;;;;5042301;28;20016;-67
2022/07/27 12:19:52;;;;;;;0.90;0.40;;;;;;;;;;5046822;28;20048;-72
2022/07/27 12:22:26;;;;;;;1.85;0.30;;;;;;;;;;5050751;28;20032;-63
2022/07/27 12:24:54;;;;;;;1.33;0.32;;;;;;;;;;5048808;28;20135;-66
2022/07/27 12:27:21;;;;;;;0.65;0.35;;;;;;;;;;5048046;28;20476;-67
2022/07/27 12:30:15;;;;;;;0.77;0.30;;;;;;;;;;5050823;28;20032;-68
2022/07/27 12:32:43;;;;;;;0.30;0.20;;;;;;;;;;5045411;28;20123;-64
2022/07/27 12:35:21;;;;;;;1.33;0.38;;;;;;;;;;5050910;28;20032;-62
2022/07/27 12:37:49;;;;;;;1.58;0.63;;;;;;;;;;5050020;28;20037;-63
2022/07/27 12:40:16;;;;;;;0.20;0.20;;;;;;;;;;5050697;28;20510;-66
2022/07/27 12:42:45;;;;;;;3.00;0.47;;;;;;;;;;5051531;28;20429;-68
2022/07/27 12:45:12;;;;;;;2.53;0.40;;;;;;;;;;5049758;28;20029;-64
2022/07/27 12:47:39;;;;;;;1.80;0.30;;;;;;;;;;5050397;28;20104;-66
2022/07/27 12:50:06;;;;;;;2.65;0.63;;;;;;;;;;5049661;28;20025;-65
2022/07/27 12:52:35;;;;;;;2.03;0.60;;;;;;;;;;5050646;28;20099;-66
2022/07/27 12:55:02;;;;;;;2.83;0.40;;;;;;;;;;5050259;28;20043;-69
2022/07/27 12:57:29;;;;;;;2.38;0.55;;;;;;;;;;5050289;28;20033;-64
2022/07/27 12:59:56;;;;;;;1.40;0.30;;;;;;;;;;5050114;28;20556;-68
2022/07/27 13:02:22;;;;;;;3.88;0.75;;;;;;;;;;5051249;28;20060;-68
2022/07/27 13:04:50;;;;;;;2.58;0.70;;;;;;;;;;5050537;28;20104;-67
2022/07/27 13:07:17;;;;;;;5.93;0.82;;;;;;;;;;5049386;28;20068;-69
2022/07/27 13:09:45;;;;;;;4.20;0.47;;;;;;;;;;5050154;28;20032;-68
2022/07/27 13:12:12;;;;;;;5.97;0.65;;;;;;;;;;5048062;28;20509;-68
2022/07/27 13:14:39;;;;;;;6.97;0.70;;;;;;;;;;5049742;28;20036;-69
2022/07/27 13:17:06;;;;;;;3.78;0.47;;;;;;;;;;5048059;28;20048;-70
2022/07/27 13:19:33;;;;;;;3.47;0.60;;;;;;;;;;5029080;28;20033;-71
2022/07/27 13:22:00;;;;;;;3.10;0.40;;;;;;;;;;5047345;28;20386;-70
2022/07/27 13:24:27;;;;;;;4.13;0.40;;;;;;;;;;5046608;28;20820;-67
2022/07/27 13:26:54;;;;;;;4.43;0.40;;;;;;;;;;5048446;28;20040;-68
2022/07/27 13:29:21;;;;;;;2.28;0.40;;;;;;;;;;5048008;28;20395;-68
2022/07/27 13:31:48;;;;;;;2.35;0.45;;;;;;;;;;5047515;28;20536;-66
2022/07/27 13:34:15;;;;;;;4.72;0.63;;;;;;;;;;5048564;28;20490;-67
2022/07/27 13:36:42;;;;;;;2.85;0.63;;;;;;;;;;5035984;28;20033;-68
2022/07/27 13:39:10;;;;;;;5.45;0.43;;;;;;;;;;5037019;28;20132;-69
2022/07/27 13:41:40;;;;;;;3.25;0.70;;;;;;;;;;5034661;28;20052;-68
2022/07/27 13:44:08;;;;;;;2.85;0.30;;;;;;;;;;5038939;28;20072;-68
2022/07/27 13:46:35;;;;;;;9.40;1.05;;;;;;;;;;5029591;28;20030;-64
2022/07/27 13:49:03;;;;;;;4.07;0.60;;;;;;;;;;5032534;28;20025;-66
2022/07/27 13:51:30;;;;;;;12.13;0.73;;;;;;;;;;5039337;28;20044;-70
2022/07/27 13:53:57;;;;;;;5.85;0.45;;;;;;;;;;5033477;28;20034;-67
2022/07/27 13:56:28;;;;;;;5.07;0.57;;;;;;;;;;5033406;28;20057;-73
2022/07/27 13:58:56;;;;;;;5.93;0.75;;;;;;;;;;5039535;28;20037;-69
2022/07/27 14:01:23;;;;;;;8.38;0.52;;;;;;;;;;5034728;28;20478;-71
2022/07/27 14:03:50;;;;;;;4.57;0.52;;;;;;;;;;5034316;28;20403;-67
2022/07/27 14:06:18;;;;;;;3.75;0.50;;;;;;;;;;5037765;28;20044;-68
2022/07/27 14:08:45;;;;;;;3.78;0.40;;;;;;;;;;5044559;28;20175;-70
2022/07/27 14:11:12;;;;;;;7.90;0.60;;;;;;;;;;5035218;28;20737;-71
2022/07/27 14:13:39;;;;;;;5.43;0.50;;;;;;;;;;5044714;28;20528;-67
2022/07/27 14:16:07;;;;;;;3.50;0.45;;;;;;;;;;5047133;28;20114;-67
2022/07/27 14:18:34;;;;;;;2.72;0.40;;;;;;;;;;5036648;28;20035;-67
2022/07/27 14:21:03;;;;;;;6.15;0.40;;;;;;;;;;5035761;28;20471;-65
2022/07/27 14:23:32;;;;;;;3.78;0.43;;;;;;;;;;5037928;28;20025;-64
2022/07/27 14:25:59;;;;;;;2.88;0.40;;;;;;;;;;5037805;28;20036;-64
2022/07/27 14:28:27;;;;;;;4.07;0.60;;;;;;;;;;5044794;28;20025;-66
2022/07/27 14:30:55;;;;;;;6.40;0.40;;;;;;;;;;5036792;28;20029;-68
2022/07/27 14:33:22;;;;;;;3.08;0.43;;;;;;;;;;5042989;28;20037;-68
2022/07/27 14:35:49;;;;;;;4.00;0.40;;;;;;;;;;5039499;28;20068;-68
2022/07/27 14:38:17;;;;;;;3.50;0.40;;;;;;;;;;5037580;28;20022;-69
2022/07/27 14:40:44;;;;;;;5.50;0.80;;;;;;;;;;5041480;28;20044;-67
2022/07/27 14:43:11;;;;;;;2.28;0.30;;;;;;;;;;5034206;28;20044;-68
2022/07/27 14:45:38;;;;;;;3.55;0.43;;;;;;;;;;5035697;28;20041;-67
2022/07/27 14:48:06;;;;;;;4.65;0.60;;;;;;;;;;5035165;28;20494;-66
2022/07/27 14:50:33;;;;;;;3.28;0.60;;;;;;;;;;5034149;28;20033;-68